New Town, ND (58763)

5:39 AM CDT on October 02, 2014 (GMT -0500)
NDDOT New Town ND 23 MP 46 | Change Station
CLOSE
Current Station
Personal Weather Station
Location: New Town, ND
Elevation: 589 m
Nearby Weather Stations

Elev 589 m 47.98 °N, 102.57 °W | Updated 59 minutes ago

Partly Cloudy
Partly Cloudy
8.3 °C
Feels Like 8 °C
N
3.2
Wind Variable Wind from WNW
Gusts 9.7 km/h

Today
High -- | Low -- °C
--% Chance of Precip.
Yesterday
High -- | Low -- °C
Precip. -- mm
7:50 AM 7:26 PM
First Quarter, 57% visible
Pressure 1010 hPa
Visibility 16.1 kilometers
Clouds Scattered Clouds 2895 m
Windchill 8 °C
Dew Point 6 °C
Humidity 82%
Rainfall -25375 mm
Snow Depth Not available.
UV 0 out of 12
Pollen .10 out of 12
Air Quality Not available.
Flu Activity Not available.
METAR K08D 021015Z AUTO 20008KT 10SM SCT095 04/04 A2984 RMK AO2

More Conditions Fewer Conditions

Pressure 1010 hPa
Visibility 16.1 kilometers
Clouds Scattered Clouds 2895 m
Windchill 8 °C
Dew Point 6 °C
Humidity 82%
Rainfall -25375 mm
Snow Depth Not available.
UV 0 out of 12
Pollen .10 out of 12
Air Quality Not available.
Flu Activity Not available.
METAR K08D 021015Z AUTO 20008KT 10SM SCT095 04/04 A2984 RMK AO2

More Conditions Fewer Conditions

10-Day Weather Forecast

Almanac

Astronomy

Oct. 02, 2014 Rise Set
Actual Time 7:50 AM CDT 7:26 PM CDT
Civil Twilight 7:19 AM CDT 7:57 PM CDT
Nautical Twilight 6:43 AM CDT 8:33 PM CDT
Astronomical Twilight 6:07 AM CDT 9:10 PM CDT
Moon 3:58 PM CDT 12:45 AM CDT
Length of Visible Light 12h 38m
Length of Day
11h 36m
Tomorrow will be 3m 26s shorter.
First Quarter, 57% of the Moon is Illuminated
Today
First Quarter
Oct 8
Full
Oct 15
Last Quarter
Oct 23
New
Oct 30
First Quarter

Today's Extremes

State Highs State Lows

Community

WunderPhotos

Upload Photos

1,758,210 photos uploaded!

WunderBlogs® & News

Nearby

Snow Depth

Station Depth Elevation
No new snow has been reported.

Earthquake Activity

City Distance Mag. Time & Date
No recent earthquake activity has been reported nearby.
Minimum magnitude displayed is 2.5.

Coastal Water Temperatures

Place Temperature
No Stations Reporting

Nearby Weather Stations